createdAt,value
2023-04-21T00:00:35.310Z,97841.72
2023-04-21T00:03:03.490Z,97839.94
2023-04-21T00:05:31.776Z,97840.59
2023-04-21T00:08:03.086Z,97840.25
2023-04-21T00:10:31.293Z,97841.16
2023-04-21T00:12:59.070Z,97839.34
2023-04-21T00:15:28.148Z,97830.41
2023-04-21T00:17:56.461Z,97824.16
2023-04-21T00:20:25.004Z,97820.22
2023-04-21T00:22:52.967Z,97827.03
2023-04-21T00:25:22.733Z,97818.31
2023-04-21T00:27:51.146Z,97818.56
2023-04-21T00:30:19.536Z,97810.97
2023-04-21T00:32:47.659Z,97803.72
2023-04-21T00:35:15.622Z,97810.31
2023-04-21T00:37:43.410Z,97803.31
2023-04-21T00:40:11.883Z,97791.75
2023-04-21T00:42:41.218Z,97790.59
2023-04-21T00:45:09.947Z,97793.31
2023-04-21T00:47:39.159Z,97794.81
2023-04-21T00:50:07.703Z,97787.66
2023-04-21T00:52:41.058Z,97796.06
2023-04-21T00:55:10.284Z,97794.50
2023-04-21T00:57:43.116Z,97792.22
2023-04-21T01:00:13.568Z,97802.41
2023-04-21T01:02:41.988Z,97793.81
2023-04-21T01:05:11.282Z,97790.63
2023-04-21T01:07:39.438Z,97791.19
2023-04-21T01:10:09.092Z,97789.06
2023-04-21T01:12:46.234Z,97795.28
2023-04-21T01:15:15.037Z,97795.28
2023-04-21T01:17:46.073Z,97801.41
2023-04-21T01:20:17.964Z,97804.34
2023-04-21T01:22:47.138Z,97801.97
2023-04-21T01:25:15.280Z,97806.72
2023-04-21T01:27:42.965Z,97811.16
2023-04-21T01:30:11.380Z,97809.56
2023-04-21T01:32:39.185Z,97815.91
2023-04-21T01:35:07.860Z,97819.75
2023-04-21T01:37:35.917Z,97814.31
2023-04-21T01:40:08.695Z,97823.03
2023-04-21T01:42:37.882Z,97820.31
2023-04-21T01:45:06.924Z,97830.53
2023-04-21T01:47:36.007Z,97823.50
2023-04-21T01:50:04.439Z,97828.22
2023-04-21T01:52:32.097Z,97829.63
2023-04-21T01:54:59.810Z,97829.72
2023-04-21T01:57:29.289Z,97826.91
2023-04-21T01:59:57.510Z,97824.84
2023-04-21T02:02:25.749Z,97828.47
2023-04-21T02:04:53.686Z,97832.09
2023-04-21T02:07:21.395Z,97831.19
2023-04-21T02:09:49.472Z,97827.34
2023-04-21T02:12:18.125Z,97823.94
2023-04-21T02:14:48.100Z,97817.59
2023-04-21T02:17:16.684Z,97822.09
2023-04-21T02:19:44.411Z,97821.88
2023-04-21T02:22:12.921Z,97814.06
2023-04-21T02:24:41.712Z,97817.66
2023-04-21T02:27:09.426Z,97811.97
2023-04-21T02:29:37.153Z,97809.38
2023-04-21T02:34:38.432Z,97807.44
2023-04-21T02:37:06.521Z,97805.91
2023-04-21T02:39:35.522Z,97808.63
2023-04-21T02:42:03.325Z,97810.00
2023-04-21T02:44:31.124Z,97806.00
2023-04-21T02:46:58.899Z,97800.91
2023-04-21T02:49:28.026Z,97800.44
2023-04-21T02:51:56.172Z,97790.59
2023-04-21T02:54:23.876Z,97795.03
2023-04-21T02:56:51.548Z,97799.53
2023-04-21T02:59:19.632Z,97801.13
2023-04-21T03:01:49.221Z,97802.69
2023-04-21T03:04:19.772Z,97797.06
2023-04-21T03:06:49.045Z,97803.63
2023-04-21T03:09:16.829Z,97801.25
2023-04-21T03:11:45.426Z,97802.03
2023-04-21T03:14:13.135Z,97802.91
2023-04-21T03:16:40.885Z,97811.84
2023-04-21T03:19:08.874Z,97804.72
2023-04-21T03:21:40.216Z,97805.38
2023-04-21T03:24:10.037Z,97810.03
2023-04-21T03:26:41.653Z,97814.00
2023-04-21T03:29:09.415Z,97813.06
2023-04-21T03:31:41.056Z,97815.78
2023-04-21T03:34:10.412Z,97809.88
2023-04-21T03:36:38.741Z,97809.88
2023-04-21T03:39:19.114Z,97809.88
2023-04-21T03:41:48.844Z,97813.84
2023-04-21T03:44:16.669Z,97813.19
2023-04-21T03:46:47.025Z,97819.09
2023-04-21T03:49:14.684Z,97811.75
2023-04-21T03:51:42.370Z,97821.66
2023-04-21T03:54:10.159Z,97817.84
2023-04-21T03:56:38.040Z,97824.06
2023-04-21T03:59:07.200Z,97817.56
2023-04-21T04:01:35.273Z,97812.78
2023-04-21T04:04:03.300Z,97813.34
2023-04-21T04:06:32.561Z,97811.19
2023-04-21T04:09:02.686Z,97814.25
2023-04-21T04:11:30.485Z,97815.13
2023-04-21T04:13:58.294Z,97813.88
2023-04-21T04:16:28.911Z,97816.78
2023-04-21T04:18:57.000Z,97818.38
2023-04-21T04:21:24.752Z,97811.25
2023-04-21T04:23:53.293Z,97811.91
2023-04-21T04:26:22.524Z,97814.47
2023-04-21T04:28:50.641Z,97818.59
2023-04-21T04:31:18.339Z,97820.38
2023-04-21T04:33:47.533Z,97824.19
2023-04-21T04:36:15.260Z,97821.00
2023-04-21T04:38:42.984Z,97823.00
2023-04-21T04:41:12.709Z,97818.25
2023-04-21T04:43:40.487Z,97813.72
2023-04-21T04:46:09.043Z,97819.16
2023-04-21T04:48:36.989Z,97822.31
2023-04-21T04:51:06.307Z,97819.16
2023-04-21T04:53:34.143Z,97826.84
2023-04-21T04:56:02.123Z,97820.09
2023-04-21T04:58:30.426Z,97822.59
2023-04-21T05:00:58.416Z,97817.19
2023-04-21T05:03:26.924Z,97819.56
2023-04-21T05:05:55.127Z,97812.03
2023-04-21T05:08:25.491Z,97819.16
2023-04-21T05:10:53.603Z,97828.31
2023-04-21T05:13:21.539Z,97825.38
2023-04-21T05:15:49.545Z,97825.66
2023-04-21T05:18:18.629Z,97830.81
2023-04-21T05:20:46.832Z,97837.31
2023-04-21T05:23:15.545Z,97833.22
2023-04-21T05:25:46.131Z,97832.38
2023-04-21T05:28:15.050Z,97825.97
2023-04-21T05:30:43.382Z,97822.50
2023-04-21T05:33:11.763Z,97831.78
2023-04-21T05:35:39.929Z,97828.97
2023-04-21T05:38:07.843Z,97838.75
2023-04-21T05:40:35.955Z,97827.53
2023-04-21T05:43:05.099Z,97836.59
2023-04-21T05:45:32.745Z,97832.63
2023-04-21T05:48:00.659Z,97829.13
2023-04-21T05:50:33.985Z,97822.22
2023-04-21T05:53:02.008Z,97835.94
2023-04-21T05:55:29.738Z,97840.59
2023-04-21T05:57:57.720Z,97836.41
2023-04-21T06:00:27.088Z,97833.22
2023-04-21T06:02:54.975Z,97838.13
2023-04-21T06:05:23.102Z,97836.44
2023-04-21T06:07:51.131Z,97840.50
2023-04-21T06:10:19.527Z,97837.44
2023-04-21T06:12:47.936Z,97835.50
2023-04-21T06:15:16.422Z,97843.66
2023-04-21T06:17:45.836Z,97850.66
2023-04-21T06:20:14.633Z,97854.03
2023-04-21T06:22:42.481Z,97852.69
2023-04-21T06:25:10.801Z,97842.69
2023-04-21T06:27:38.633Z,97843.31
2023-04-21T06:30:08.246Z,97841.91
2023-04-21T06:32:36.234Z,97841.44
2023-04-21T06:35:05.990Z,97836.31
2023-04-21T06:37:33.747Z,97832.91
2023-04-21T06:40:01.552Z,97829.47
2023-04-21T06:42:29.358Z,97822.19
2023-04-21T06:44:57.154Z,97830.34
2023-04-21T06:47:25.057Z,97823.41
2023-04-21T06:49:54.291Z,97830.00
2023-04-21T06:52:23.591Z,97821.47
2023-04-21T06:54:51.211Z,97828.25
2023-04-21T06:57:19.318Z,97829.00
2023-04-21T06:59:49.311Z,97829.28
2023-04-21T07:02:17.203Z,97823.03
2023-04-21T07:04:45.094Z,97835.19
2023-04-21T07:07:14.307Z,97831.31
2023-04-21T07:09:47.319Z,97828.47
2023-04-21T07:12:15.205Z,97831.66
2023-04-21T07:14:43.022Z,97826.16
2023-04-21T07:17:11.115Z,97836.81
2023-04-21T07:19:39.552Z,97836.75
2023-04-21T07:22:07.510Z,97837.13
2023-04-21T07:24:37.302Z,97836.41
2023-04-21T07:27:06.610Z,97833.22
2023-04-21T07:29:34.440Z,97837.97
2023-04-21T07:32:02.474Z,97825.38
2023-04-21T07:34:30.245Z,97818.63
2023-04-21T07:36:58.080Z,97817.06
2023-04-21T07:39:25.704Z,97815.88
2023-04-21T07:41:53.966Z,97817.91
2023-04-21T07:44:23.265Z,97815.28
2023-04-21T07:46:51.212Z,97816.72
2023-04-21T07:49:19.227Z,97826.03
2023-04-21T07:51:48.505Z,97815.97
2023-04-21T07:54:16.255Z,97807.59
2023-04-21T07:56:44.648Z,97812.97
2023-04-21T07:59:12.288Z,97813.06
2023-04-21T08:01:41.316Z,97811.16
2023-04-21T08:04:09.675Z,97815.69
2023-04-21T08:06:37.831Z,97807.69
2023-04-21T08:09:05.828Z,97800.75
2023-04-21T08:11:33.855Z,97811.47
2023-04-21T08:14:01.596Z,97806.66
2023-04-21T08:16:31.101Z,97802.22
2023-04-21T08:19:02.651Z,97801.09
2023-04-21T08:21:32.029Z,97793.41
2023-04-21T08:23:59.875Z,97797.03
2023-04-21T08:26:30.433Z,97790.56
2023-04-21T08:29:00.714Z,97799.38
2023-04-21T08:31:31.405Z,97800.66
2023-04-21T08:34:03.054Z,97797.81
2023-04-21T08:36:32.147Z,97801.25
2023-04-21T08:39:00.495Z,97792.00
2023-04-21T08:41:28.678Z,97799.97
2023-04-21T08:43:56.583Z,97791.88
2023-04-21T08:46:26.093Z,97806.88
2023-04-21T08:48:55.486Z,97796.97
2023-04-21T08:51:27.508Z,97796.53
2023-04-21T08:53:56.687Z,97794.53
2023-04-21T08:56:25.676Z,97793.41
2023-04-21T08:58:53.416Z,97807.13
2023-04-21T09:01:21.315Z,97802.66
2023-04-21T09:03:50.637Z,97795.66
2023-04-21T09:06:19.830Z,97786.22
2023-04-21T09:08:56.618Z,97801.16
2023-04-21T09:11:24.567Z,97795.59
2023-04-21T09:13:53.062Z,97805.56
2023-04-21T09:16:22.968Z,97798.28
2023-04-21T09:18:51.829Z,97801.09
2023-04-21T09:21:23.260Z,97800.81
2023-04-21T09:23:53.551Z,97793.97
2023-04-21T09:26:24.111Z,97792.56
2023-04-21T09:28:53.947Z,97785.31
2023-04-21T09:31:25.468Z,97780.53
2023-04-21T09:33:58.736Z,97779.41
2023-04-21T09:36:29.163Z,97775.91
2023-04-21T09:41:34.431Z,97788.03
2023-04-21T09:44:05.056Z,97779.34
2023-04-21T09:46:35.384Z,97775.13
2023-04-21T09:49:04.503Z,97799.16
2023-04-21T09:52:02.150Z,97783.09
2023-04-21T09:54:29.823Z,97791.28
2023-04-21T09:57:02.127Z,97788.66
2023-04-21T09:59:33.416Z,97782.09
2023-04-21T10:02:02.438Z,97776.03
2023-04-21T10:04:33.212Z,97781.38
2023-04-21T10:07:02.105Z,97778.13
2023-04-21T10:09:37.406Z,97767.22
2023-04-21T10:12:09.376Z,97772.16
2023-04-21T10:14:37.601Z,97753.25
2023-04-21T10:17:07.567Z,97757.28
2023-04-21T10:19:40.137Z,97759.63
2023-04-21T10:22:09.563Z,97759.88
2023-04-21T10:24:41.882Z,97753.72
2023-04-21T10:27:13.098Z,97746.28
2023-04-21T10:29:55.417Z,97746.00
2023-04-21T10:32:40.164Z,97754.31
2023-04-21T10:35:13.045Z,97747.38
2023-04-21T10:37:42.858Z,97737.88
2023-04-21T10:40:43.654Z,97730.34
2023-04-21T10:43:45.916Z,97739.25
2023-04-21T10:46:36.973Z,97733.00
2023-04-21T10:49:09.470Z,97741.56
2023-04-21T10:52:05.520Z,97739.44
2023-04-21T10:54:41.672Z,97721.22
2023-04-21T10:57:12.712Z,97721.25
2023-04-21T10:59:56.443Z,97733.34
2023-04-21T11:02:24.524Z,97717.34
2023-04-21T11:04:53.382Z,97711.81
2023-04-21T11:07:23.035Z,97714.66
2023-04-21T11:09:59.797Z,97708.03
2023-04-21T11:12:34.564Z,97719.88
2023-04-21T11:15:12.678Z,97704.84
2023-04-21T11:17:44.205Z,97705.06
2023-04-21T11:20:12.239Z,97692.59
2023-04-21T11:22:39.965Z,97693.53
2023-04-21T11:25:18.895Z,97691.88
2023-04-21T11:27:56.295Z,97688.41
2023-04-21T11:30:34.023Z,97691.22
2023-04-21T11:33:02.052Z,97687.53
2023-04-21T11:35:29.858Z,97682.03
2023-04-21T11:38:00.402Z,97675.63
2023-04-21T11:40:28.276Z,97685.13
2023-04-21T11:42:56.433Z,97680.78
2023-04-21T11:45:25.630Z,97675.28
2023-04-21T11:48:15.951Z,97677.16
2023-04-21T11:50:48.540Z,97668.03
2023-04-21T11:53:16.864Z,97665.34
2023-04-21T11:55:45.134Z,97664.66
2023-04-21T11:58:16.289Z,97664.47
2023-04-21T12:00:47.860Z,97668.38
2023-04-21T12:03:16.285Z,97665.69
2023-04-21T12:05:44.583Z,97654.47
2023-04-21T12:08:16.304Z,97662.53
2023-04-21T12:10:49.664Z,97657.84
2023-04-21T12:13:23.433Z,97657.47
2023-04-21T12:15:55.011Z,97663.41
2023-04-21T12:18:22.807Z,97647.09
2023-04-21T12:20:53.024Z,97651.41
2023-04-21T12:23:20.861Z,97643.06
2023-04-21T12:25:48.846Z,97645.28
2023-04-21T12:28:17.264Z,97645.16
2023-04-21T12:30:47.479Z,97639.44
2023-04-21T12:33:16.664Z,97649.34
2023-04-21T12:35:44.762Z,97637.03
2023-04-21T12:38:13.841Z,97640.84
2023-04-21T12:40:41.509Z,97642.72
2023-04-21T12:43:09.338Z,97638.25
2023-04-21T12:45:38.520Z,97643.25
2023-04-21T12:48:06.710Z,97632.28
2023-04-21T12:50:36.105Z,97631.41
2023-04-21T12:53:04.080Z,97622.31
2023-04-21T12:55:31.875Z,97619.56
2023-04-21T12:58:01.148Z,97625.34
2023-04-21T13:00:29.584Z,97633.22
2023-04-21T13:02:58.494Z,97620.06
2023-04-21T13:05:28.180Z,97625.91
2023-04-21T13:07:57.296Z,97626.38
2023-04-21T13:10:25.326Z,97622.19
2023-04-21T13:12:53.546Z,97622.06
2023-04-21T13:15:21.596Z,97629.25
2023-04-21T13:17:50.021Z,97627.41
2023-04-21T13:20:20.704Z,97621.09
2023-04-21T13:22:48.506Z,97627.81
2023-04-21T13:25:19.512Z,97607.94
2023-04-21T13:27:50.440Z,97613.00
2023-04-21T13:30:19.432Z,97612.25
2023-04-21T13:32:47.210Z,97609.22
2023-04-21T13:35:15.065Z,97616.28
2023-04-21T13:37:43.056Z,97623.34
2023-04-21T13:40:12.141Z,97616.38
2023-04-21T13:42:41.773Z,97611.25
2023-04-21T13:45:10.761Z,97615.88
2023-04-21T13:47:38.706Z,97599.28
2023-04-21T13:50:07.499Z,97608.28
2023-04-21T13:52:36.719Z,97601.44
2023-04-21T13:55:05.284Z,97594.03
2023-04-21T13:57:33.231Z,97586.94
2023-04-21T14:00:03.221Z,97594.00
2023-04-21T14:02:31.108Z,97588.81
2023-04-21T14:04:59.206Z,97582.97
2023-04-21T14:07:27.482Z,97584.78
2023-04-21T14:09:55.661Z,97575.75
2023-04-21T14:12:24.261Z,97567.88
2023-04-21T14:14:53.019Z,97579.31
2023-04-21T14:17:23.233Z,97572.34
2023-04-21T14:19:55.356Z,97574.13
2023-04-21T14:22:23.475Z,97559.59
2023-04-21T14:24:51.665Z,97562.69
2023-04-21T14:27:19.418Z,97568.72
2023-04-21T14:29:47.096Z,97554.44
2023-04-21T14:32:14.913Z,97553.75
2023-04-21T14:34:44.062Z,97544.75
2023-04-21T14:37:12.832Z,97548.59
2023-04-21T14:39:40.684Z,97558.84
2023-04-21T14:42:08.381Z,97550.09
2023-04-21T14:44:36.490Z,97549.06
2023-04-21T14:47:09.925Z,97540.94
2023-04-21T14:49:39.036Z,97528.91
2023-04-21T14:52:08.436Z,97540.00
2023-04-21T14:54:36.212Z,97542.56
2023-04-21T14:57:19.035Z,97537.44
2023-04-21T14:59:49.379Z,97541.72
2023-04-21T15:02:17.413Z,97544.75
2023-04-21T15:04:45.731Z,97537.03
2023-04-21T15:07:17.930Z,97531.53
2023-04-21T15:09:51.019Z,97529.66
2023-04-21T15:12:19.074Z,97531.03
2023-04-21T15:14:47.030Z,97532.88
2023-04-21T15:17:14.811Z,97523.97
2023-04-21T15:19:42.618Z,97522.78
2023-04-21T15:22:12.137Z,97516.66
2023-04-21T15:24:41.236Z,97516.09
2023-04-21T15:27:08.976Z,97517.09
2023-04-21T15:29:42.190Z,97511.56
2023-04-21T15:32:10.231Z,97516.94
2023-04-21T15:34:38.185Z,97518.44
2023-04-21T15:37:05.905Z,97520.75
2023-04-21T15:39:33.782Z,97514.31
2023-04-21T15:42:05.084Z,97495.06
2023-04-21T15:44:34.013Z,97495.13
2023-04-21T15:47:02.164Z,97495.34
2023-04-21T15:49:29.941Z,97497.22
2023-04-21T15:51:57.940Z,97507.72
2023-04-21T15:54:25.624Z,97493.06
2023-04-21T15:56:53.668Z,97494.72
2023-04-21T15:59:25.112Z,97490.38
2023-04-21T16:01:54.177Z,97482.22
2023-04-21T16:04:22.031Z,97491.78
2023-04-21T16:06:50.104Z,97481.97
2023-04-21T16:09:18.206Z,97484.75
2023-04-21T16:11:46.120Z,97481.72
2023-04-21T16:14:16.800Z,97479.44
2023-04-21T16:16:46.231Z,97471.63
2023-04-21T16:19:14.133Z,97483.13
2023-04-21T16:21:42.367Z,97477.16
2023-04-21T16:24:10.883Z,97479.44
2023-04-21T16:26:38.653Z,97484.50
2023-04-21T16:29:06.437Z,97481.72
2023-04-21T16:31:34.209Z,97479.81
2023-04-21T16:34:29.742Z,97482.56
2023-04-21T16:36:57.404Z,97473.47
2023-04-21T16:39:25.104Z,97474.31
2023-04-21T16:41:52.836Z,97469.63
2023-04-21T16:44:21.068Z,97474.19
2023-04-21T16:46:49.016Z,97467.94
2023-04-21T16:49:17.365Z,97480.56
2023-04-21T16:51:46.809Z,97476.72
2023-04-21T16:54:14.892Z,97479.00
2023-04-21T16:56:43.639Z,97482.25
2023-04-21T16:59:11.716Z,97484.66
2023-04-21T17:01:40.017Z,97482.03
2023-04-21T17:04:08.017Z,97473.75
2023-04-21T17:06:38.033Z,97474.94
2023-04-21T17:09:08.138Z,97478.59
2023-04-21T17:11:38.848Z,97481.72
2023-04-21T17:14:07.849Z,97485.66
2023-04-21T17:16:35.817Z,97488.50
2023-04-21T17:19:06.854Z,97475.41
2023-04-21T17:21:34.664Z,97487.31
2023-04-21T17:24:02.454Z,97484.31
2023-04-21T17:26:31.664Z,97487.56
2023-04-21T17:29:00.048Z,97482.88
2023-04-21T17:31:29.413Z,97489.25
2023-04-21T17:33:58.131Z,97482.88
2023-04-21T17:36:27.521Z,97490.94
2023-04-21T17:38:57.231Z,97489.06
2023-04-21T17:41:27.694Z,97485.03
2023-04-21T17:43:56.882Z,97491.88
2023-04-21T17:46:26.416Z,97494.00
2023-04-21T17:48:54.849Z,97489.00
2023-04-21T17:51:23.217Z,97490.56
2023-04-21T17:53:51.063Z,97493.19
2023-04-21T17:56:18.968Z,97490.03
2023-04-21T17:58:49.130Z,97500.38
2023-04-21T18:01:18.344Z,97506.28
2023-04-21T18:03:46.836Z,97505.66
2023-04-21T18:06:17.074Z,97506.84
2023-04-21T18:08:44.890Z,97507.66
2023-04-21T18:11:13.189Z,97508.97
2023-04-21T18:13:42.232Z,97515.41
2023-04-21T18:16:09.980Z,97510.34
2023-04-21T18:18:41.148Z,97517.53
2023-04-21T18:21:08.982Z,97520.00
2023-04-21T18:23:36.719Z,97516.88
2023-04-21T18:26:05.116Z,97510.88
2023-04-21T18:28:33.324Z,97516.50
2023-04-21T18:31:01.331Z,97517.81
2023-04-21T18:33:30.545Z,97509.22
2023-04-21T18:35:59.591Z,97518.75
2023-04-21T18:38:27.485Z,97522.28
2023-04-21T18:40:56.359Z,97526.66
2023-04-21T18:43:24.408Z,97521.19
2023-04-21T18:45:52.850Z,97528.34
2023-04-21T18:48:23.601Z,97530.41
2023-04-21T18:50:51.270Z,97538.00
2023-04-21T18:53:20.560Z,97534.91
2023-04-21T18:55:48.399Z,97537.38
2023-04-21T18:58:17.650Z,97544.53
2023-04-21T19:00:45.560Z,97542.22
2023-04-21T19:03:13.807Z,97547.03
2023-04-21T19:05:42.996Z,97547.47
2023-04-21T19:08:11.365Z,97550.66
2023-04-21T19:10:40.575Z,97555.03
2023-04-21T19:13:08.804Z,97543.22
2023-04-21T19:15:36.732Z,97555.13
2023-04-21T19:18:05.558Z,97546.50
2023-04-21T19:20:35.554Z,97544.97
2023-04-21T19:23:04.327Z,97556.78
2023-04-21T19:25:33.379Z,97551.31
2023-04-21T19:28:04.481Z,97554.09
2023-04-21T19:30:34.991Z,97558.44
2023-04-21T19:33:05.320Z,97569.09
2023-04-21T19:35:35.914Z,97564.81
2023-04-21T19:38:05.862Z,97564.81
2023-04-21T19:40:34.356Z,97569.97
2023-04-21T19:43:04.790Z,97569.97
2023-04-21T19:45:34.374Z,97568.03
2023-04-21T19:48:05.188Z,97575.16
2023-04-21T19:50:34.902Z,97572.84
2023-04-21T19:53:05.745Z,97576.38
2023-04-21T19:55:34.370Z,97574.41
2023-04-21T19:58:05.188Z,97578.38
2023-04-21T20:00:34.406Z,97576.81
2023-04-21T20:03:04.455Z,97587.41
2023-04-21T20:05:36.980Z,97581.53
2023-04-21T20:08:05.983Z,97581.53
2023-04-21T20:10:37.514Z,97585.47
2023-04-21T20:13:06.909Z,97582.72
2023-04-21T20:15:34.872Z,97579.22
2023-04-21T20:18:04.335Z,97582.34
2023-04-21T20:20:32.117Z,97583.91
2023-04-21T20:23:00.852Z,97578.41
2023-04-21T20:25:30.964Z,97583.88
2023-04-21T20:27:58.819Z,97578.41
2023-04-21T20:30:28.168Z,97584.69
2023-04-21T20:32:56.192Z,97578.78
2023-04-21T20:35:23.957Z,97581.56
2023-04-21T20:37:53.457Z,97588.22
2023-04-21T20:40:21.823Z,97589.78
2023-04-21T20:42:52.052Z,97585.47
2023-04-21T20:45:19.861Z,97585.84
2023-04-21T20:47:49.138Z,97580.75
2023-04-21T20:50:16.989Z,97582.31
2023-04-21T20:52:44.761Z,97583.88
2023-04-21T20:55:15.232Z,97590.19
2023-04-21T20:57:44.182Z,97583.84
2023-04-21T21:00:15.280Z,97585.44
2023-04-21T21:02:44.164Z,97587.00
2023-04-21T21:05:16.514Z,97593.25
2023-04-21T21:07:47.172Z,97592.47
2023-04-21T21:10:17.590Z,97597.97
2023-04-21T21:12:46.514Z,97603.44
2023-04-21T21:15:14.834Z,97599.53
2023-04-21T21:17:42.955Z,97605.00
2023-04-21T21:20:18.858Z,97601.84
2023-04-21T21:22:54.655Z,97601.44
2023-04-21T21:25:27.387Z,97601.03
2023-04-21T21:27:58.223Z,97604.09
2023-04-21T21:30:28.252Z,97597.00
2023-04-21T21:32:58.264Z,97598.91
2023-04-21T21:35:28.007Z,97606.75
2023-04-21T21:37:56.009Z,97605.59
2023-04-21T21:40:24.434Z,97594.59
2023-04-21T21:42:54.532Z,97604.00
2023-04-21T21:45:23.709Z,97598.47
2023-04-21T21:47:51.643Z,97600.78
2023-04-21T21:50:19.958Z,97599.94
2023-04-21T21:52:49.612Z,97609.34
2023-04-21T21:55:17.928Z,97609.69
2023-04-21T21:57:45.877Z,97616.75
2023-04-21T22:00:15.927Z,97621.81
2023-04-21T22:02:48.727Z,97615.50
2023-04-21T22:05:16.701Z,97619.41
2023-04-21T22:07:46.224Z,97618.56
2023-04-21T22:10:16.630Z,97610.63
2023-04-21T22:12:46.587Z,97616.13
2023-04-21T22:15:14.951Z,97609.88
2023-04-21T22:17:45.654Z,97603.53
2023-04-21T22:20:15.505Z,97616.81
2023-04-21T22:22:43.605Z,97612.09
2023-04-21T22:25:13.987Z,97618.75
2023-04-21T22:27:45.439Z,97617.16
2023-04-21T22:30:13.875Z,97618.34
2023-04-21T22:32:46.098Z,97623.44
2023-04-21T22:35:16.186Z,97616.72
2023-04-21T22:37:48.841Z,97624.53
2023-04-21T22:40:19.984Z,97619.03
2023-04-21T22:42:49.749Z,97620.59
2023-04-21T22:45:18.482Z,97629.19
2023-04-21T22:47:49.614Z,97629.56
2023-04-21T22:50:17.917Z,97627.59
2023-04-21T22:52:46.608Z,97636.91
2023-04-21T22:55:17.532Z,97628.28
2023-04-21T22:57:45.591Z,97637.25
2023-04-21T23:00:16.924Z,97637.25
2023-04-21T23:02:45.114Z,97636.00
2023-04-21T23:05:13.853Z,97627.41
2023-04-21T23:07:42.621Z,97640.00
2023-04-21T23:10:12.611Z,97631.44
2023-04-21T23:12:41.991Z,97636.91
2023-04-21T23:15:11.069Z,97631.50
2023-04-21T23:17:45.594Z,97629.97
2023-04-21T23:20:17.546Z,97627.53
2023-04-21T23:22:50.987Z,97633.75
2023-04-21T23:25:21.794Z,97634.59
2023-04-21T23:27:50.354Z,97639.66
2023-04-21T23:30:19.689Z,97643.84
2023-04-21T23:32:50.324Z,97636.78
2023-04-21T23:35:20.157Z,97640.69
2023-04-21T23:37:50.896Z,97646.16
2023-04-21T23:40:20.758Z,97631.22
2023-04-21T23:42:49.075Z,97635.94
2023-04-21T23:45:18.985Z,97635.91
2023-04-21T23:47:48.879Z,97636.31
2023-04-21T23:50:17.198Z,97634.38
2023-04-21T23:52:46.573Z,97637.44
2023-04-21T23:55:14.848Z,97631.91
2023-04-21T23:57:46.936Z,97634.91
